< < Back
Terminal Aerodrome Forecast


Current Version              Previous Versions:   1  2  3  4  5  6  7  8  9  

Terminal Aerodrome Forecast

143
FTUS42 KCAE 282300
TAFCAE
TAF
KCAE 282334Z 2900/2924 32006KT P6SM FEW070
     FM290600 01005KT P6SM SKC
     FM291900 20006KT P6SM SCT250=

Latest METAR

890
SAUS80 KWBC 290100
MTRCAE
METAR KCAE 290056Z 21003KT 10SM FEW065 07/M01 A3015 RMK AO2 SLP210
T00721011


USA.gov is the U.S. government's official web portal to all federal, state and local government web resources and services.